Terminal Aerodrome Forecast
Issued by NWS

Home | Current Version | Previous Version | Text Only | Print | Product List | Glossary On
Versions: 1 2 3 4 5 6 7 8 9 10 11 12 13 14 15 16 17 18 19 20 21 22 23 24 25 26 27 28 29 30 31 32 33 34 35 36 37 38 39 40 41 42 43 44 45 46 47 48 49 50
665
FTUS41 KCTP 251006 AAD
TAFJST
TAF AMD
KJST 251006Z 2510/2606 16009G19KT 4SM RA BR BKN006 BKN035 OVC040
      WS020/21044KT
     FM251100 19010KT 2SM -RA BR OVC003 WS020/23052KT
     FM251600 24011G18KT 4SM -DZ BR OVC001
     FM251800 26015G23KT P6SM OVC015
     FM252000 27012G20KT P6SM OVC250=

USA.gov is the U.S. government's official web portal to all federal, state and local government web resources and services.